Time;durP1;ratioP1;P1;durP2;ratioP2;P2;SDS_P1;SDS_P2;PMS_P1;PMS_P2;Temp;Humidity;BMP_temperature;BMP_pressure;BME280_temperature;BME280_humidity;BME280_pressure;Samples;Min_cycle;Max_cycle;Signal;HPM_P1;HPM_P2
2024/03/12 00:00:16;;;;;;;1.38;0.75;;;7.50;87.90;;;;;;5035961;28;20045;-65
2024/03/12 00:02:50;;;;;;;1.38;0.80;;;7.60;87.90;;;;;;5035568;28;20080;-67
2024/03/12 00:05:18;;;;;;;1.52;0.90;;;7.60;87.40;;;;;;5039153;28;20037;-65
2024/03/12 00:07:44;;;;;;;1.92;0.90;;;7.60;87.30;;;;;;5037590;28;20110;-64
2024/03/12 00:10:15;;;;;;;0.85;0.63;;;7.60;87.40;;;;;;5037204;28;20041;-65
2024/03/12 00:12:43;;;;;;;1.97;1.10;;;7.60;87.60;;;;;;5038970;28;20025;-67
2024/03/12 00:15:09;;;;;;;1.25;0.80;;;7.60;87.30;;;;;;5033893;28;20822;-66
2024/03/12 00:17:36;;;;;;;1.60;0.60;;;7.60;87.30;;;;;;5035465;28;20422;-65
2024/03/12 00:20:15;;;;;;;0.85;0.60;;;7.60;87.40;;;;;;5035544;28;20148;-66
2024/03/12 00:22:45;;;;;;;1.08;0.75;;;7.60;87.30;;;;;;5039748;28;20040;-66
2024/03/12 00:25:12;;;;;;;0.95;0.75;;;7.60;87.50;;;;;;5030519;28;20048;-65
2024/03/12 00:27:40;;;;;;;1.83;0.90;;;7.60;87.40;;;;;;5032984;28;20093;-65
2024/03/12 00:30:11;;;;;;;1.17;0.88;;;7.50;87.40;;;;;;5030878;28;20021;-65
2024/03/12 00:32:43;;;;;;;1.77;0.90;;;7.50;87.50;;;;;;5038648;28;20036;-65
2024/03/12 00:35:12;;;;;;;1.33;0.70;;;7.30;87.60;;;;;;5036395;28;20458;-65
2024/03/12 00:37:41;;;;;;;2.03;1.10;;;7.10;88.00;;;;;;5036688;28;20037;-65
2024/03/12 00:40:11;;;;;;;1.25;0.73;;;7.10;88.20;;;;;;5038608;28;20060;-65
2024/03/12 00:42:43;;;;;;;1.50;0.87;;;6.90;88.50;;;;;;5038685;28;20078;-65
2024/03/12 00:45:13;;;;;;;1.30;0.80;;;6.70;88.80;;;;;;5036529;28;20052;-65
2024/03/12 00:47:42;;;;;;;2.15;0.80;;;6.60;89.00;;;;;;5029333;28;20030;-65
2024/03/12 00:50:11;;;;;;;1.15;0.93;;;6.60;89.20;;;;;;5036731;28;20104;-66
2024/03/12 00:52:38;;;;;;;1.20;0.90;;;6.50;89.60;;;;;;5032205;28;20041;-65
2024/03/12 00:55:04;;;;;;;1.73;1.00;;;6.30;89.80;;;;;;5036088;28;20024;-65
2024/03/12 00:57:34;;;;;;;2.22;1.15;;;6.20;90.20;;;;;;5034628;28;20476;-66
2024/03/12 00:59:59;;;;;;;1.98;1.05;;;6.10;90.60;;;;;;5032200;28;20044;-65
2024/03/12 01:02:25;;;;;;;1.60;0.98;;;6.00;90.70;;;;;;5038741;28;20400;-66
2024/03/12 01:04:52;;;;;;;1.35;0.85;;;5.80;91.20;;;;;;5035165;28;20299;-65
2024/03/12 01:07:19;;;;;;;1.05;0.63;;;5.60;91.70;;;;;;5029732;28;20025;-65
2024/03/12 01:09:45;;;;;;;1.80;1.02;;;5.60;92.00;;;;;;5035469;28;20098;-67
2024/03/12 01:12:10;;;;;;;1.48;1.00;;;5.50;92.10;;;;;;5030892;28;20037;-65
2024/03/12 01:14:39;;;;;;;1.35;1.00;;;5.40;92.30;;;;;;5028495;28;20043;-64
2024/03/12 01:17:06;;;;;;;1.23;0.80;;;5.30;92.50;;;;;;5034602;28;20040;-64
2024/03/12 01:19:35;;;;;;;0.82;0.60;;;5.20;92.70;;;;;;5032386;28;20033;-67
2024/03/12 01:22:01;;;;;;;1.70;0.80;;;5.20;93.00;;;;;;5034500;28;20055;-64
2024/03/12 01:24:27;;;;;;;3.55;1.08;;;5.20;93.10;;;;;;5035753;28;20116;-64
2024/03/12 01:26:53;;;;;;;1.90;0.95;;;5.20;93.30;;;;;;5039879;28;20100;-65
2024/03/12 01:29:19;;;;;;;2.00;0.98;;;5.30;93.40;;;;;;5027426;28;20087;-64
2024/03/12 01:31:44;;;;;;;0.98;0.80;;;5.40;93.40;;;;;;5034762;28;20041;-64
2024/03/12 01:34:10;;;;;;;1.30;0.77;;;5.50;93.60;;;;;;5028061;28;20106;-64
2024/03/12 01:36:37;;;;;;;1.60;0.90;;;5.50;93.50;;;;;;5028694;28;20037;-64
2024/03/12 01:39:04;;;;;;;1.35;1.02;;;5.60;93.50;;;;;;5033046;28;20113;-64
2024/03/12 01:41:34;;;;;;;1.42;0.88;;;5.60;93.40;;;;;;5039006;28;20041;-63
2024/03/12 01:44:02;;;;;;;2.15;1.10;;;5.50;93.60;;;;;;5036083;28;20044;-64
2024/03/12 01:46:32;;;;;;;1.00;0.80;;;5.30;93.40;;;;;;5039287;28;20493;-64
2024/03/12 01:48:58;;;;;;;2.15;1.02;;;5.20;93.60;;;;;;5032002;28;20040;-64
2024/03/12 01:51:28;;;;;;;1.17;0.98;;;5.10;93.70;;;;;;5033615;28;20464;-64
2024/03/12 01:53:54;;;;;;;1.02;0.85;;;5.00;93.90;;;;;;5028707;28;20053;-64
2024/03/12 01:56:20;;;;;;;1.23;0.80;;;4.90;94.00;;;;;;5029586;28;20100;-64
2024/03/12 01:58:45;;;;;;;1.00;0.90;;;4.80;94.20;;;;;;5036444;28;20440;-65
2024/03/12 02:01:12;;;;;;;2.50;1.13;;;4.70;94.20;;;;;;5033866;28;20126;-64
2024/03/12 02:03:38;;;;;;;2.88;0.98;;;4.70;94.60;;;;;;5032888;28;20461;-65
2024/03/12 02:06:04;;;;;;;0.88;0.70;;;4.60;94.80;;;;;;5036905;28;20567;-64
2024/03/12 02:08:32;;;;;;;1.67;0.90;;;4.60;94.80;;;;;;5033359;28;20445;-64
2024/03/12 02:10:58;;;;;;;2.40;0.80;;;4.60;95.00;;;;;;5039923;28;20075;-64
2024/03/12 02:13:23;;;;;;;1.42;0.93;;;4.50;95.10;;;;;;5032174;28;20362;-65
2024/03/12 02:15:49;;;;;;;0.85;0.70;;;4.30;95.10;;;;;;5036087;28;20099;-65
2024/03/12 02:18:14;;;;;;;1.48;0.90;;;4.30;95.30;;;;;;5037797;28;20111;-65
2024/03/12 02:20:40;;;;;;;1.50;0.90;;;4.20;95.40;;;;;;5042100;28;20037;-65
2024/03/12 02:23:05;;;;;;;2.00;1.10;;;4.20;95.60;;;;;;5034038;28;20187;-64
2024/03/12 02:25:31;;;;;;;1.55;1.00;;;4.10;95.70;;;;;;5035788;28;20140;-64
2024/03/12 02:27:56;;;;;;;2.15;1.10;;;4.20;96.00;;;;;;5032288;28;20051;-64
2024/03/12 02:30:22;;;;;;;0.93;0.82;;;4.10;96.00;;;;;;5031053;28;20041;-64
2024/03/12 02:32:48;;;;;;;0.98;0.80;;;4.10;96.10;;;;;;5030976;28;20052;-64
2024/03/12 02:35:15;;;;;;;1.30;0.90;;;4.10;96.30;;;;;;5030930;28;20082;-64
2024/03/12 02:37:41;;;;;;;1.55;0.85;;;4.10;96.20;;;;;;5032049;28;20034;-65
2024/03/12 02:40:12;;;;;;;2.17;1.10;;;4.20;96.30;;;;;;5032140;28;20454;-64
2024/03/12 02:42:38;;;;;;;2.35;0.95;;;4.20;96.40;;;;;;5034866;28;20470;-64
2024/03/12 02:45:05;;;;;;;2.35;1.17;;;4.10;96.40;;;;;;5030972;28;20097;-65
2024/03/12 02:47:30;;;;;;;1.50;1.05;;;4.10;96.50;;;;;;5032522;28;20068;-64
2024/03/12 02:49:57;;;;;;;1.85;0.90;;;4.10;96.60;;;;;;5036940;28;20041;-65
2024/03/12 02:52:23;;;;;;;1.35;1.02;;;4.10;96.60;;;;;;5035637;28;20075;-64
2024/03/12 02:54:49;;;;;;;1.33;0.90;;;4.20;96.60;;;;;;5036997;28;20140;-64
2024/03/12 02:57:14;;;;;;;2.03;1.05;;;4.60;97.00;;;;;;5037489;28;20033;-64
2024/03/12 02:59:40;;;;;;;1.60;0.90;;;4.60;96.80;;;;;;5025096;28;20056;-66
2024/03/12 03:02:05;;;;;;;1.92;1.20;;;4.60;96.80;;;;;;5031344;28;20454;-65
2024/03/12 03:04:36;;;;;;;1.45;1.10;;;4.70;96.70;;;;;;5027743;28;20048;-66
2024/03/12 03:07:04;;;;;;;2.22;1.20;;;4.80;96.60;;;;;;5034795;28;20029;-66
2024/03/12 03:09:30;;;;;;;2.20;1.42;;;4.90;96.50;;;;;;5029464;28;20128;-66
2024/03/12 03:11:55;;;;;;;2.35;1.15;;;4.90;96.50;;;;;;5029158;28;20025;-65
2024/03/12 03:14:21;;;;;;;2.58;1.35;;;5.10;96.50;;;;;;5036755;28;20033;-65
2024/03/12 03:16:48;;;;;;;1.95;1.10;;;5.10;96.40;;;;;;5036196;28;20052;-65
2024/03/12 03:19:13;;;;;;;0.80;0.77;;;5.30;96.30;;;;;;5037063;28;20435;-65
2024/03/12 03:21:39;;;;;;;2.55;1.50;;;5.30;96.20;;;;;;5031467;28;20040;-65
2024/03/12 03:24:05;;;;;;;1.65;0.98;;;5.50;95.90;;;;;;5038256;28;20112;-65
2024/03/12 03:26:31;;;;;;;2.80;1.45;;;5.50;95.80;;;;;;5036088;28;20033;-65
2024/03/12 03:28:57;;;;;;;2.60;1.25;;;5.60;95.60;;;;;;5027871;28;20812;-65
2024/03/12 03:31:24;;;;;;;2.10;1.15;;;5.60;95.50;;;;;;5032224;28;20026;-65
2024/03/12 03:33:50;;;;;;;3.83;1.58;;;5.60;95.40;;;;;;5039678;28;20091;-65
2024/03/12 03:36:16;;;;;;;3.05;1.27;;;5.70;95.40;;;;;;5033703;28;20045;-64
2024/03/12 03:38:42;;;;;;;2.95;1.42;;;5.70;95.00;;;;;;5030388;28;20503;-66
2024/03/12 03:41:09;;;;;;;2.20;1.38;;;5.70;94.80;;;;;;5030807;28;20112;-65
2024/03/12 03:43:35;;;;;;;2.20;1.20;;;5.80;94.70;;;;;;5035813;28;20049;-67
2024/03/12 03:46:01;;;;;;;2.53;1.30;;;5.80;94.60;;;;;;5033780;28;20032;-64
2024/03/12 03:48:26;;;;;;;2.45;1.20;;;5.80;94.60;;;;;;5032697;28;20057;-65
2024/03/12 03:50:52;;;;;;;2.55;1.40;;;5.80;94.50;;;;;;5035231;28;20167;-65
2024/03/12 03:53:17;;;;;;;1.52;1.00;;;5.80;94.50;;;;;;5033895;28;20402;-66
2024/03/12 03:55:43;;;;;;;1.35;1.02;;;5.80;94.50;;;;;;5035715;28;20033;-64
2024/03/12 03:58:09;;;;;;;3.08;1.27;;;5.80;94.50;;;;;;5036493;28;20037;-65
2024/03/12 04:00:36;;;;;;;2.47;1.20;;;5.90;94.50;;;;;;5034750;28;20029;-65
2024/03/12 04:03:06;;;;;;;2.83;1.25;;;5.90;94.50;;;;;;5033109;28;20050;-65
2024/03/12 04:05:33;;;;;;;2.42;1.40;;;5.90;94.40;;;;;;5040817;28;20029;-65
2024/03/12 04:08:02;;;;;;;3.95;1.80;;;6.00;94.40;;;;;;5036408;28;20047;-64
2024/03/12 04:10:30;;;;;;;2.30;1.20;;;6.00;94.30;;;;;;5032277;28;20073;-65
2024/03/12 04:12:55;;;;;;;3.15;1.33;;;6.00;94.20;;;;;;5039009;28;20349;-65
2024/03/12 04:15:22;;;;;;;3.33;1.60;;;6.10;94.30;;;;;;5031992;28;20029;-65
2024/03/12 04:17:48;;;;;;;3.03;2.00;;;6.10;94.20;;;;;;5040407;28;20438;-65
2024/03/12 04:20:16;;;;;;;2.53;1.42;;;6.10;94.10;;;;;;5032279;28;20041;-65
2024/03/12 04:22:43;;;;;;;5.88;1.70;;;6.10;94.00;;;;;;5032265;28;20029;-64
2024/03/12 04:25:09;;;;;;;2.17;1.42;;;6.10;94.00;;;;;;5036573;28;20064;-65
2024/03/12 04:27:38;;;;;;;3.92;1.48;;;6.10;93.90;;;;;;5039880;28;20128;-65
2024/03/12 04:30:05;;;;;;;2.90;1.45;;;6.10;93.90;;;;;;5027399;28;20057;-65
2024/03/12 04:32:31;;;;;;;3.38;1.65;;;6.10;93.90;;;;;;5036171;28;20073;-66
2024/03/12 04:34:56;;;;;;;2.83;1.52;;;6.10;93.90;;;;;;5035442;28;20466;-65
2024/03/12 04:37:22;;;;;;;3.25;1.30;;;6.10;93.90;;;;;;5031328;28;20085;-66
2024/03/12 04:39:48;;;;;;;2.80;1.40;;;6.10;94.00;;;;;;5033510;28;20097;-65
2024/03/12 04:42:13;;;;;;;2.38;1.30;;;6.10;94.00;;;;;;5035874;28;20083;-65
2024/03/12 04:44:39;;;;;;;2.58;1.60;;;6.10;94.10;;;;;;5037947;28;20104;-65
2024/03/12 04:47:04;;;;;;;3.38;1.50;;;6.10;94.00;;;;;;5035224;28;20045;-67
2024/03/12 04:49:30;;;;;;;2.55;1.20;;;6.10;94.00;;;;;;5034608;28;20041;-64
2024/03/12 04:51:55;;;;;;;2.83;1.45;;;6.10;93.90;;;;;;5034630;28;20377;-64
2024/03/12 04:54:21;;;;;;;3.95;1.60;;;6.10;93.90;;;;;;5031965;28;20060;-65
2024/03/12 04:56:47;;;;;;;3.55;1.60;;;6.10;93.90;;;;;;5038664;28;20040;-65
2024/03/12 04:59:16;;;;;;;2.60;1.50;;;6.10;93.90;;;;;;5028575;28;20100;-65
2024/03/12 05:01:45;;;;;;;4.28;1.95;;;6.10;94.00;;;;;;5035480;28;20136;-66
2024/03/12 05:04:13;;;;;;;4.18;1.95;;;6.10;94.10;;;;;;5033431;28;20033;-65
2024/03/12 05:06:42;;;;;;;3.95;1.80;;;6.10;94.00;;;;;;5036826;28;20029;-65
2024/03/12 05:09:08;;;;;;;2.40;1.38;;;6.20;94.00;;;;;;5029042;28;20135;-65
2024/03/12 05:11:34;;;;;;;3.85;1.80;;;6.30;93.70;;;;;;5029494;28;20047;-65
2024/03/12 05:13:59;;;;;;;4.10;1.98;;;6.30;93.80;;;;;;5029069;28;20026;-65
2024/03/12 05:16:26;;;;;;;3.65;1.77;;;6.30;93.60;;;;;;5032709;28;20048;-65
2024/03/12 05:18:51;;;;;;;4.82;2.30;;;6.30;93.70;;;;;;5039244;28;20156;-65
2024/03/12 05:21:17;;;;;;;4.63;2.13;;;6.30;93.60;;;;;;5035168;28;20124;-65
2024/03/12 05:23:42;;;;;;;5.70;2.35;;;6.50;93.60;;;;;;5030176;28;20365;-65
2024/03/12 05:26:08;;;;;;;4.97;2.13;;;6.40;93.40;;;;;;5029373;28;20152;-65
2024/03/12 05:28:35;;;;;;;3.75;1.73;;;6.60;93.40;;;;;;5044731;28;20032;-64
2024/03/12 05:31:01;;;;;;;4.43;2.17;;;6.50;93.30;;;;;;5038158;28;20448;-65
2024/03/12 05:33:29;;;;;;;4.78;2.38;;;6.50;93.30;;;;;;5030277;28;20025;-63
2024/03/12 05:35:56;;;;;;;5.90;2.70;;;6.60;93.40;;;;;;5027592;28;20035;-64
2024/03/12 05:38:32;;;;;;;5.78;2.60;;;6.60;93.40;;;;;;5026590;28;20037;-64
2024/03/12 05:41:14;;;;;;;4.85;2.35;;;6.60;93.20;;;;;;5032938;28;20067;-63
2024/03/12 05:49:14;;;;;;;5.15;2.38;;;6.60;93.10;;;;;;5032070;28;20136;-64
2024/03/12 05:51:39;;;;;;;4.72;2.50;;;6.60;93.10;;;;;;5037239;28;20073;-64
2024/03/12 05:54:05;;;;;;;3.97;1.75;;;6.60;93.00;;;;;;5026767;28;20090;-63
2024/03/12 05:56:31;;;;;;;4.05;1.92;;;6.60;92.90;;;;;;5035789;28;20132;-66
2024/03/12 05:58:56;;;;;;;4.45;2.10;;;6.60;92.80;;;;;;5036592;28;20021;-63
2024/03/12 06:01:23;;;;;;;4.55;2.10;;;6.60;92.90;;;;;;5026994;28;20056;-66
2024/03/12 06:03:53;;;;;;;3.58;1.98;;;6.60;92.80;;;;;;5031980;28;20446;-63
2024/03/12 06:06:19;;;;;;;4.65;2.22;;;6.60;92.70;;;;;;5034062;28;20152;-65
2024/03/12 06:08:44;;;;;;;3.55;2.00;;;6.60;92.80;;;;;;5034610;28;20037;-66
2024/03/12 06:11:12;;;;;;;4.80;2.20;;;6.60;92.80;;;;;;5028781;28;20159;-63
2024/03/12 06:13:38;;;;;;;4.63;2.20;;;6.70;92.70;;;;;;5026659;28;21325;-63
2024/03/12 06:16:07;;;;;;;5.35;2.40;;;6.70;92.50;;;;;;5032688;28;20501;-63
2024/03/12 06:18:32;;;;;;;5.90;2.95;;;6.70;92.50;;;;;;5033500;28;20022;-63
2024/03/12 06:20:58;;;;;;;4.53;2.33;;;6.70;92.50;;;;;;5032299;28;20438;-64
2024/03/12 06:23:25;;;;;;;5.93;2.75;;;6.80;92.50;;;;;;5031914;28;20140;-63
2024/03/12 06:25:51;;;;;;;5.32;2.33;;;6.80;92.50;;;;;;5033803;28;20052;-65
2024/03/12 06:28:17;;;;;;;5.55;2.42;;;6.70;92.50;;;;;;5030122;28;20030;-63
2024/03/12 06:30:43;;;;;;;4.68;2.63;;;6.80;92.60;;;;;;5030478;28;20032;-64
2024/03/12 06:33:09;;;;;;;6.93;2.85;;;6.80;92.40;;;;;;5036474;28;20049;-63
2024/03/12 06:35:35;;;;;;;6.45;2.08;;;6.80;92.40;;;;;;5028353;28;20033;-64
2024/03/12 06:38:01;;;;;;;5.38;2.92;;;6.80;92.40;;;;;;5040667;28;20080;-64
2024/03/12 06:40:27;;;;;;;5.70;2.40;;;6.80;92.30;;;;;;5042337;28;20029;-63
2024/03/12 06:42:53;;;;;;;5.25;2.50;;;6.90;92.30;;;;;;5034221;28;20060;-64
2024/03/12 06:45:18;;;;;;;5.30;2.60;;;6.90;92.30;;;;;;5027232;28;20087;-63
2024/03/12 06:47:46;;;;;;;7.28;3.28;;;6.90;92.30;;;;;;5039265;28;20033;-63
2024/03/12 06:50:12;;;;;;;6.60;2.83;;;6.90;92.20;;;;;;5038335;28;20029;-63
2024/03/12 06:52:37;;;;;;;6.50;2.92;;;7.00;92.00;;;;;;5027963;28;20116;-63
2024/03/12 06:55:12;;;;;;;5.30;2.30;;;7.00;92.10;;;;;;5038330;28;20033;-63
2024/03/12 06:57:39;;;;;;;5.00;2.53;;;7.00;92.00;;;;;;5029998;28;20029;-64
2024/03/12 07:00:09;;;;;;;4.32;2.28;;;7.00;92.00;;;;;;5033885;28;20021;-63
2024/03/12 07:02:38;;;;;;;6.95;2.90;;;7.00;91.90;;;;;;5031865;28;20331;-63
2024/03/12 07:05:07;;;;;;;4.30;2.40;;;7.00;92.00;;;;;;5027868;28;20037;-63
2024/03/12 07:07:32;;;;;;;4.28;1.92;;;7.00;91.90;;;;;;5040744;28;20482;-63
2024/03/12 07:10:02;;;;;;;7.43;2.80;;;7.00;92.00;;;;;;5040642;28;20041;-64
2024/03/12 07:12:28;;;;;;;7.95;2.97;;;7.00;92.00;;;;;;5036811;28;20050;-65
2024/03/12 07:14:56;;;;;;;5.80;2.85;;;7.10;92.00;;;;;;5033009;28;20034;-65
2024/03/12 07:17:22;;;;;;;4.72;2.25;;;7.10;92.00;;;;;;5034299;28;20033;-64
2024/03/12 07:19:49;;;;;;;5.22;2.28;;;7.10;91.90;;;;;;5047449;28;20078;-64
2024/03/12 07:22:17;;;;;;;7.18;2.95;;;7.10;91.80;;;;;;5037088;28;20033;-64
2024/03/12 07:24:43;;;;;;;5.03;2.47;;;7.20;91.70;;;;;;5044404;28;20118;-63
2024/03/12 07:27:10;;;;;;;5.85;2.63;;;7.20;91.60;;;;;;5040711;28;20087;-64
2024/03/12 07:29:36;;;;;;;6.30;2.78;;;7.20;91.50;;;;;;5038044;28;20121;-67
2024/03/12 07:32:03;;;;;;;5.18;2.78;;;7.20;91.50;;;;;;5028693;28;20104;-65
2024/03/12 07:34:32;;;;;;;5.93;2.70;;;7.30;91.50;;;;;;5035610;28;20426;-63
2024/03/12 07:36:59;;;;;;;6.20;2.92;;;7.20;91.40;;;;;;5038055;28;20114;-64
2024/03/12 07:39:25;;;;;;;5.22;2.55;;;7.30;91.30;;;;;;5033665;28;20105;-63
2024/03/12 07:41:54;;;;;;;5.57;2.60;;;7.30;91.40;;;;;;5040139;28;20049;-64
2024/03/12 07:44:20;;;;;;;5.15;2.30;;;7.30;91.40;;;;;;5038595;28;20056;-63
2024/03/12 07:46:47;;;;;;;6.05;2.45;;;7.30;91.30;;;;;;5037558;28;20619;-64
2024/03/12 07:49:13;;;;;;;4.60;2.25;;;7.30;91.30;;;;;;5042985;28;20017;-64
2024/03/12 07:51:39;;;;;;;4.32;2.05;;;7.30;91.30;;;;;;5035856;28;20464;-64
2024/03/12 07:54:08;;;;;;;6.15;2.72;;;7.30;91.30;;;;;;5034636;28;20030;-63
2024/03/12 07:56:35;;;;;;;4.47;2.30;;;7.40;91.10;;;;;;5032655;28;20422;-63
2024/03/12 07:59:01;;;;;;;5.53;2.60;;;7.40;90.90;;;;;;5033823;28;20042;-63
2024/03/12 08:01:26;;;;;;;4.97;2.60;;;7.40;90.80;;;;;;5034670;28;20400;-63
2024/03/12 08:03:52;;;;;;;5.80;2.17;;;7.40;90.80;;;;;;5030651;28;20487;-63
2024/03/12 08:06:20;;;;;;;5.30;2.42;;;7.40;91.00;;;;;;5038600;28;20109;-64
2024/03/12 08:08:48;;;;;;;5.00;2.42;;;7.40;91.00;;;;;;5036216;28;20021;-64
2024/03/12 08:11:14;;;;;;;5.75;2.60;;;7.40;90.90;;;;;;5039844;28;20068;-63
2024/03/12 08:13:40;;;;;;;4.85;2.05;;;7.30;90.90;;;;;;5041122;28;20085;-63
2024/03/12 08:16:06;;;;;;;5.22;2.35;;;7.40;90.90;;;;;;5039249;28;20033;-64
2024/03/12 08:18:32;;;;;;;4.43;2.08;;;7.40;91.10;;;;;;5018604;28;20059;-64
2024/03/12 08:20:58;;;;;;;5.60;2.58;;;7.40;90.90;;;;;;5030362;28;20037;-63
2024/03/12 08:23:24;;;;;;;3.67;2.30;;;7.40;90.80;;;;;;5036161;28;20057;-63
2024/03/12 08:25:49;;;;;;;3.08;1.80;;;7.40;90.90;;;;;;5030450;28;20056;-64
2024/03/12 08:28:16;;;;;;;4.43;2.15;;;7.40;91.00;;;;;;5031993;28;20072;-64
2024/03/12 08:30:45;;;;;;;4.38;2.20;;;7.30;90.90;;;;;;5029835;28;20427;-64
2024/03/12 08:33:11;;;;;;;5.63;2.35;;;7.30;90.80;;;;;;5043303;28;20487;-64
2024/03/12 08:35:36;;;;;;;4.18;2.17;;;7.40;90.80;;;;;;5037211;28;20033;-64
2024/03/12 08:38:04;;;;;;;4.82;2.35;;;7.40;91.00;;;;;;5029768;28;20477;-63
2024/03/12 08:40:30;;;;;;;5.30;2.45;;;7.40;91.10;;;;;;5038463;28;20033;-62
2024/03/12 08:42:56;;;;;;;3.55;2.05;;;7.40;91.10;;;;;;5034280;28;20367;-63
2024/03/12 08:45:22;;;;;;;4.97;2.25;;;7.40;91.00;;;;;;5039776;28;20029;-63
2024/03/12 08:47:47;;;;;;;4.20;2.08;;;7.30;91.10;;;;;;5039152;28;20443;-62
2024/03/12 08:50:14;;;;;;;4.97;2.10;;;7.30;91.40;;;;;;5036409;28;20132;-63
2024/03/12 08:52:39;;;;;;;4.95;2.63;;;7.30;91.30;;;;;;5038131;28;20442;-63
2024/03/12 08:55:06;;;;;;;4.15;2.25;;;7.40;91.50;;;;;;5031837;28;20126;-62
2024/03/12 08:57:31;;;;;;;3.67;2.05;;;7.40;91.40;;;;;;5031549;28;20049;-63
2024/03/12 08:59:58;;;;;;;4.53;2.50;;;7.40;91.50;;;;;;5037260;28;20484;-63
2024/03/12 09:02:23;;;;;;;6.00;2.70;;;7.40;91.50;;;;;;5026769;28;20025;-63
2024/03/12 09:04:49;;;;;;;5.88;2.53;;;7.50;91.40;;;;;;5034754;28;20089;-64
2024/03/12 09:07:16;;;;;;;5.15;2.70;;;7.60;91.40;;;;;;5028080;28;20563;-62
2024/03/12 09:09:42;;;;;;;5.32;2.53;;;7.60;91.20;;;;;;5033791;28;20475;-63
2024/03/12 09:12:08;;;;;;;6.22;3.15;;;7.70;91.40;;;;;;5028796;28;20128;-64
2024/03/12 09:14:34;;;;;;;6.93;3.50;;;7.80;91.10;;;;;;5040799;28;20037;-64
2024/03/12 09:16:59;;;;;;;5.75;2.92;;;7.90;91.00;;;;;;5036562;28;20369;-66
2024/03/12 09:19:24;;;;;;;8.82;3.47;;;8.00;90.80;;;;;;5032570;28;20147;-64
2024/03/12 09:21:50;;;;;;;6.78;2.85;;;8.10;90.70;;;;;;5030305;28;20450;-64
2024/03/12 09:24:18;;;;;;;7.95;3.70;;;8.30;90.50;;;;;;5030146;28;20056;-64
2024/03/12 09:26:44;;;;;;;7.30;3.47;;;8.30;90.40;;;;;;5033244;28;20028;-64
2024/03/12 09:29:12;;;;;;;7.68;3.97;;;8.50;90.20;;;;;;5028216;28;20029;-64
2024/03/12 09:31:39;;;;;;;9.68;4.75;;;8.50;89.80;;;;;;5031238;28;20061;-64
2024/03/12 09:34:04;;;;;;;9.32;4.13;;;8.70;89.70;;;;;;5033431;28;20495;-64
2024/03/12 09:36:29;;;;;;;9.95;5.32;;;8.90;89.80;;;;;;5036581;28;20235;-64
2024/03/12 09:38:55;;;;;;;12.02;5.45;;;8.90;89.00;;;;;;5031960;28;20396;-65
2024/03/12 09:41:23;;;;;;;12.23;5.78;;;8.90;88.70;;;;;;5039479;28;20129;-64
2024/03/12 09:43:51;;;;;;;12.63;6.35;;;9.10;89.40;;;;;;5034343;28;20351;-64
2024/03/12 09:46:17;;;;;;;11.77;6.13;;;9.10;89.00;;;;;;5034847;28;20029;-64
2024/03/12 09:48:44;;;;;;;11.05;6.28;;;9.20;88.80;;;;;;5034578;28;20024;-64
2024/03/12 09:51:11;;;;;;;12.18;6.40;;;9.20;88.40;;;;;;5035684;28;20029;-62
2024/03/12 09:53:37;;;;;;;12.95;6.00;;;9.20;88.30;;;;;;5032912;28;20055;-64
2024/03/12 09:56:06;;;;;;;13.80;7.18;;;9.20;88.10;;;;;;5033086;28;20037;-64
2024/03/12 09:58:33;;;;;;;15.05;7.47;;;9.10;88.50;;;;;;5033518;28;20029;-64
2024/03/12 10:01:02;;;;;;;12.70;6.55;;;9.10;88.80;;;;;;5030547;28;20430;-64
2024/03/12 10:03:29;;;;;;;16.48;8.00;;;9.10;89.10;;;;;;5036089;28;20021;-66
2024/03/12 10:05:55;;;;;;;15.73;7.20;;;9.00;88.40;;;;;;5032407;28;20420;-64
2024/03/12 10:08:28;;;;;;;15.95;8.45;;;9.10;88.90;;;;;;5039859;28;20040;-66
2024/03/12 10:10:54;;;;;;;14.90;7.90;;;9.00;88.30;;;;;;5039719;28;20328;-62
2024/03/12 10:13:19;;;;;;;16.80;8.38;;;9.00;88.00;;;;;;5030633;28;20040;-64
2024/03/12 10:15:56;;;;;;;16.95;8.40;;;9.10;88.30;;;;;;5031174;28;20127;-63
2024/03/12 10:18:24;;;;;;;15.10;7.60;;;9.10;88.40;;;;;;5043197;28;20040;-63
2024/03/12 10:20:54;;;;;;;16.00;8.55;;;9.00;88.40;;;;;;5038173;28;20029;-62
2024/03/12 10:23:21;;;;;;;13.48;7.13;;;9.00;88.40;;;;;;5040039;28;20021;-63
2024/03/12 10:25:48;;;;;;;15.35;8.05;;;9.00;88.20;;;;;;5038930;28;20028;-63
2024/03/12 10:28:15;;;;;;;15.93;8.38;;;9.00;88.50;;;;;;5034393;28;20087;-63
2024/03/12 10:30:42;;;;;;;14.68;7.70;;;9.00;88.50;;;;;;5038058;28;20163;-63
2024/03/12 10:33:21;;;;;;;16.25;8.85;;;8.90;88.90;;;;;;5034025;28;20104;-62
2024/03/12 10:35:47;;;;;;;15.75;7.70;;;8.90;89.30;;;;;;5033213;28;20033;-63
2024/03/12 10:38:26;;;;;;;15.68;8.65;;;8.90;89.40;;;;;;5043023;28;20056;-63
2024/03/12 10:40:56;;;;;;;13.80;8.27;;;8.80;89.60;;;;;;5035477;28;20037;-63
2024/03/12 10:43:24;;;;;;;16.97;9.63;;;9.00;89.60;;;;;;5033792;28;20056;-63
2024/03/12 10:45:50;;;;;;;13.45;7.32;;;8.90;89.90;;;;;;5032669;28;20174;-62
2024/03/12 10:48:17;;;;;;;13.90;6.85;;;8.80;89.40;;;;;;5040759;28;20391;-64
2024/03/12 10:50:44;;;;;;;13.93;7.63;;;9.00;89.40;;;;;;5031989;28;20525;-63
2024/03/12 10:53:11;;;;;;;15.23;7.57;;;9.40;89.10;;;;;;5032375;28;20365;-63
2024/03/12 10:55:38;;;;;;;15.40;8.40;;;9.50;88.80;;;;;;5033267;28;20109;-63
2024/03/12 10:58:06;;;;;;;12.88;7.13;;;9.50;88.30;;;;;;5038212;28;20394;-63
2024/03/12 11:00:33;;;;;;;15.95;7.78;;;9.30;88.40;;;;;;5035754;28;20464;-65
2024/03/12 11:02:59;;;;;;;14.77;8.35;;;9.20;88.40;;;;;;5035868;28;20021;-63
2024/03/12 11:05:29;;;;;;;14.90;7.13;;;9.10;88.90;;;;;;5030638;28;20041;-64
2024/03/12 11:07:57;;;;;;;18.05;8.07;;;9.10;88.90;;;;;;5033372;28;20060;-63
2024/03/12 11:10:26;;;;;;;14.82;8.38;;;9.00;88.80;;;;;;5026856;28;20093;-64
2024/03/12 11:12:54;;;;;;;13.20;7.82;;;9.10;88.60;;;;;;5034207;28;20713;-62
2024/03/12 11:15:20;;;;;;;15.82;8.88;;;9.20;88.30;;;;;;5027923;28;20091;-63
2024/03/12 11:17:48;;;;;;;15.63;8.32;;;9.20;88.40;;;;;;5029465;28;20034;-63
2024/03/12 11:20:15;;;;;;;14.13;8.10;;;9.20;88.50;;;;;;5037161;28;20033;-63
2024/03/12 11:22:42;;;;;;;16.50;7.82;;;9.10;89.20;;;;;;5032823;28;20157;-63
2024/03/12 11:25:09;;;;;;;15.13;8.13;;;9.10;89.00;;;;;;5036983;28;20029;-63
2024/03/12 11:27:36;;;;;;;15.38;8.15;;;9.00;89.10;;;;;;5040230;28;20041;-65
2024/03/12 11:30:08;;;;;;;15.15;7.60;;;8.90;89.40;;;;;;5034422;28;20111;-62
2024/03/12 11:32:42;;;;;;;15.88;7.47;;;9.00;89.40;;;;;;5034152;28;20502;-63
2024/03/12 11:35:17;;;;;;;15.77;8.27;;;9.20;89.60;;;;;;5040980;28;20047;-63
2024/03/12 11:38:02;;;;;;;15.25;8.15;;;9.20;88.70;;;;;;5037000;28;20039;-63
2024/03/12 11:40:31;;;;;;;15.63;8.20;;;9.40;88.70;;;;;;5041000;28;20127;-63
2024/03/12 11:42:58;;;;;;;12.32;7.22;;;9.60;87.80;;;;;;5038393;28;20426;-63
2024/03/12 11:45:40;;;;;;;14.23;6.75;;;9.60;87.70;;;;;;5034494;28;20438;-63
2024/03/12 11:48:09;;;;;;;14.00;7.18;;;9.60;87.20;;;;;;5032273;28;20037;-63
2024/03/12 11:50:39;;;;;;;15.15;7.20;;;9.60;87.50;;;;;;5041889;28;20095;-63
2024/03/12 11:53:17;;;;;;;14.82;7.43;;;9.50;88.00;;;;;;5039777;28;20149;-64
2024/03/12 11:56:10;;;;;;;16.60;7.63;;;9.30;87.80;;;;;;5030322;28;20466;-63
2024/03/12 11:58:51;;;;;;;15.57;8.35;;;9.10;88.00;;;;;;5035754;28;20244;-62
2024/03/12 12:01:31;;;;;;;;;;;9.10;88.10;;;;;;5042407;28;20081;-63
2024/03/12 12:04:07;;;;;;;12.60;6.72;;;9.10;88.20;;;;;;5042551;28;19920;-63
2024/03/12 12:06:33;;;;;;;17.88;8.02;;;9.20;88.40;;;;;;5041889;28;20521;-63
2024/03/12 12:09:10;;;;;;;13.30;7.65;;;9.10;88.20;;;;;;5047811;28;20021;-63
2024/03/12 12:11:37;;;;;;;13.55;6.95;;;9.00;88.80;;;;;;5038634;28;20094;-63
2024/03/12 12:14:08;;;;;;;17.98;8.25;;;9.10;88.70;;;;;;5035406;28;20446;-63
2024/03/12 12:16:33;;;;;;;;;;;9.10;88.40;;;;;;5037194;28;20417;-63
2024/03/12 12:19:06;;;;;;;14.05;6.88;;;9.10;88.00;;;;;;5044363;28;19923;-63
2024/03/12 12:21:33;;;;;;;16.50;7.55;;;9.30;88.00;;;;;;5035805;28;20065;-63
2024/03/12 12:24:00;;;;;;;14.68;7.68;;;9.40;87.90;;;;;;5043809;28;20128;-63
2024/03/12 12:26:26;;;;;;;15.38;7.60;;;9.60;87.40;;;;;;5036200;28;20459;-65
2024/03/12 12:28:53;;;;;;;18.95;7.85;;;9.80;87.20;;;;;;5042264;28;20036;-64
2024/03/12 12:31:20;;;;;;;17.27;8.07;;;9.70;86.40;;;;;;5043964;28;20338;-63
2024/03/12 12:33:49;;;;;;;13.30;7.45;;;9.60;86.50;;;;;;5035848;28;20045;-63
2024/03/12 12:36:18;;;;;;;14.68;7.60;;;9.90;86.40;;;;;;5035904;28;20029;-62
2024/03/12 12:38:45;;;;;;;17.25;8.15;;;9.80;86.20;;;;;;5038124;28;20138;-63
2024/03/12 12:41:14;;;;;;;14.43;7.38;;;9.70;85.90;;;;;;5038516;28;20029;-62
2024/03/12 12:43:42;;;;;;;15.82;8.23;;;9.90;86.00;;;;;;5037706;28;20048;-63
2024/03/12 12:46:16;;;;;;;13.05;7.18;;;9.90;86.20;;;;;;5033543;28;20088;-63
2024/03/12 12:48:42;;;;;;;16.38;7.00;;;9.90;85.80;;;;;;5041567;28;20032;-63
2024/03/12 12:51:09;;;;;;;15.30;7.55;;;9.80;85.10;;;;;;5047054;28;20028;-63
2024/03/12 12:53:36;;;;;;;14.48;7.63;;;10.00;85.40;;;;;;5032326;28;20120;-63
2024/03/12 12:56:01;;;;;;;13.05;7.50;;;10.00;84.80;;;;;;5036000;28;20377;-63
2024/03/12 12:58:33;;;;;;;17.20;7.55;;;10.00;84.90;;;;;;5037692;28;20120;-63
2024/03/12 13:01:01;;;;;;;14.35;7.10;;;9.90;85.40;;;;;;5030157;28;20045;-63